首页
METAR-TAF:

METAR-TAF

机场 :

Fort Dodge, 艾奥瓦州, 美国

纬度: 42-33N, 经度: 094-11W, 海拔: 354米

当前天气观测

该预报发布于48分钟前的08:56 UTC
风速4节,风向
温度 8°C
湿度 87%
气压 1007 hPa
能見度: 16.1公里
天空无云

METAR: KFOD 150856Z AUTO 18004KT 10SM CLR 08/06 A2975 RMK AO2 SLP103 6//// T00830056 56017 $

时间: 04:44 (09:44 UTC)

预报

该预报发布于4小时和24分钟前的05:20 UTC
预报有效从15日的 06点(UTC)到 16日的 06点(UTC)
风速8节,风向南转南东
能見度: 10公里
散云层高于20000英尺
从 15日的 1000点(UTC)
风速8节,风向西,有时为19节阵风
能見度: 10公里
散云层高于20000英尺
从 15日的 1300点(UTC)
风速14节,风向西转西北,有时为24节阵风
能見度: 10公里
散云层高于20000英尺
从 15日的 1900点(UTC)
风速21节,风向西转西北,有时为32节阵风
能見度: 10公里
多云层高于20000英尺
从 15日的 2300点(UTC)
风速18节,风向西北,有时为29节阵风
能見度: 10公里
多云层高于3500英尺

TAF: KFOD 150520Z 1506/1606 16008KT P6SM SCT200 WS020/21040KT FM151000 27008G19KT P6SM SCT200 WS020/30040KT FM151300 29014G24KT P6SM SCT200 FM151900 30021G32KT P6SM BKN200 FM152300 32018G29KT P6SM BKN035

超过4000个机场的气象观测和天气预报(METAR&TAF报告)。

可查询的气象台以黄色和红色小点在地图上表示。

将鼠标移到小点上方,可查看气象台名称。

然后点击查看天气观测和预报。

如需切换地图:点击带黑十字的绿色按钮放大地图;点击带横线的绿色按钮缩小地图;或者点击绿色箭头查看邻近地区的地图。


METAR-TAF: